Time;durP1;ratioP1;P1;durP2;ratioP2;P2;SDS_P1;SDS_P2;PMS_P1;PMS_P2;Temp;Humidity;BMP_temperature;BMP_pressure;BME280_temperature;BME280_humidity;BME280_pressure;Samples;Min_cycle;Max_cycle;Signal;HPM_P1;HPM_P2
2022/07/20 00:01:10;;;;;;;8.75;4.15;;;;;;;19.39;96.27;96677.22;4962481;28;20066;-61
2022/07/20 00:03:36;;;;;;;12.20;4.78;;;;;;;19.54;94.68;96668.59;4975011;28;20041;-61
2022/07/20 00:06:02;;;;;;;10.40;4.70;;;;;;;19.58;94.13;96674.88;4965775;28;20051;-61
2022/07/20 00:11:20;;;;;;;11.73;4.10;;;;;;;19.94;89.91;96674.94;4973762;28;20035;-59
2022/07/20 00:13:54;;;;;;;8.50;4.80;;;;;;;20.02;89.27;96675.56;4967190;28;20035;-60
2022/07/20 00:16:21;;;;;;;6.88;4.28;;;;;;;20.02;88.74;96678.34;4970010;28;20027;-61
2022/07/20 00:18:47;;;;;;;12.68;4.00;;;;;;;19.94;86.38;96674.16;4958225;28;20089;-60
2022/07/20 00:21:12;;;;;;;12.32;3.95;;;;;;;19.76;87.47;96680.88;4967789;28;20038;-60
2022/07/20 00:23:37;;;;;;;10.32;4.57;;;;;;;19.76;89.07;96674.53;4969345;28;20426;-61
2022/07/20 00:26:03;;;;;;;9.07;4.25;;;;;;;19.76;89.47;96683.66;4973961;28;20038;-61
2022/07/20 00:28:28;;;;;;;9.63;4.25;;;;;;;19.60;89.44;96683.53;4972940;28;20038;-61
2022/07/20 00:30:54;;;;;;;8.45;4.35;;;;;;;19.65;89.55;96683.84;4972936;28;20027;-61
2022/07/20 00:33:20;;;;;;;10.65;4.60;;;;;;;19.34;90.03;96679.66;4968661;28;20035;-60
2022/07/20 00:35:45;;;;;;;11.98;5.05;;;;;;;18.40;96.51;96686.75;4969348;28;20085;-60
2022/07/20 00:38:10;;;;;;;12.13;5.00;;;;;;;18.32;98.04;96676.97;4965753;28;20126;-59
2022/07/20 00:40:36;;;;;;;11.27;4.85;;;;;;;18.13;100.00;96681.19;4973281;28;20045;-61
2022/07/20 00:43:01;;;;;;;10.93;4.57;;;;;;;18.17;100.00;96681.94;4964731;28;20114;-61
2022/07/20 00:45:27;;;;;;;8.98;4.78;;;;;;;18.43;100.00;96680.34;4964965;28;20058;-59
2022/07/20 00:47:52;;;;;;;8.15;5.00;;;;;;;18.76;96.18;96677.84;4988633;28;20554;-60
2022/07/20 00:50:18;;;;;;;13.00;5.20;;;;;;;19.07;94.37;96680.56;4971777;28;20039;-61
2022/07/20 00:52:44;;;;;;;9.05;4.45;;;;;;;18.90;93.17;96685.97;4957960;28;20097;-60
2022/07/20 00:55:10;;;;;;;8.90;4.97;;;;;;;18.79;93.82;96679.78;4961888;28;20046;-62
2022/07/20 00:57:35;;;;;;;7.57;4.82;;;;;;;18.37;96.46;96679.28;4966710;28;20074;-61
2022/07/20 01:00:03;;;;;;;9.23;4.60;;;;;;;18.42;97.38;96684.34;4964142;28;20500;-61
2022/07/20 01:02:28;;;;;;;6.40;4.55;;;;;;;18.53;96.80;96675.88;4967056;28;20098;-60
2022/07/20 01:04:54;;;;;;;12.18;4.88;;;;;;;18.53;96.53;96686.97;4960274;28;20049;-61
2022/07/20 01:07:19;;;;;;;11.82;4.10;;;;;;;18.62;96.46;96683.63;4964574;28;20109;-61
2022/07/20 01:09:45;;;;;;;12.77;5.35;;;;;;;18.60;95.25;96686.84;4971877;28;20039;-61
2022/07/20 01:12:11;;;;;;;9.50;5.15;;;;;;;18.65;94.75;96691.13;4957208;28;20065;-60
2022/07/20 01:14:37;;;;;;;10.23;4.97;;;;;;;18.81;93.69;96687.69;4964839;28;20089;-61
2022/07/20 01:17:02;;;;;;;6.82;4.57;;;;;;;18.85;93.01;96685.69;4971080;28;20511;-60
2022/07/20 01:19:28;;;;;;;9.50;4.72;;;;;;;18.78;93.14;96694.09;4965786;28;20358;-61
2022/07/20 01:21:54;;;;;;;8.38;4.88;;;;;;;18.70;93.39;96683.09;4970145;28;20033;-59
2022/07/20 01:24:19;;;;;;;8.60;4.50;;;;;;;18.66;94.06;96681.59;4972342;28;20092;-61
2022/07/20 01:26:45;;;;;;;9.32;5.35;;;;;;;18.53;94.23;96679.41;4969995;28;20043;-61
2022/07/20 01:29:13;;;;;;;10.25;4.90;;;;;;;17.96;99.34;96675.47;4965337;28;20035;-60
2022/07/20 01:31:39;;;;;;;10.23;4.82;;;;;;;17.55;100.00;96681.88;4981532;28;20031;-61
2022/07/20 01:34:05;;;;;;;7.93;5.20;;;;;;;17.49;100.00;96686.31;4970702;28;20042;-61
2022/07/20 01:36:31;;;;;;;12.02;5.30;;;;;;;17.56;100.00;96680.69;4969961;28;20111;-61
2022/07/20 01:38:56;;;;;;;10.93;5.10;;;;;;;17.62;100.00;96685.78;4955380;28;20053;-59
2022/07/20 01:41:22;;;;;;;14.27;5.45;;;;;;;17.75;100.00;96693.13;4952720;28;20484;-59
2022/07/20 01:43:47;;;;;;;6.72;4.75;;;;;;;17.77;100.00;96701.00;4970092;28;20042;-61
2022/07/20 01:46:12;;;;;;;9.25;4.82;;;;;;;17.95;100.00;96692.50;4962881;28;20089;-61
2022/07/20 01:48:38;;;;;;;9.30;5.38;;;;;;;18.10;100.00;96701.44;4968942;28;20042;-62
2022/07/20 01:51:04;;;;;;;9.23;5.05;;;;;;;18.22;99.98;96694.53;4961827;28;20031;-61
2022/07/20 01:53:29;;;;;;;11.80;4.32;;;;;;;18.32;99.00;96696.38;4952689;28;20027;-62
2022/07/20 01:55:55;;;;;;;7.93;4.75;;;;;;;18.38;97.76;96700.22;4952471;28;20480;-61
2022/07/20 01:58:20;;;;;;;10.57;4.95;;;;;;;17.98;99.77;96702.00;4960312;28;20035;-60
2022/07/20 02:00:46;;;;;;;10.00;4.80;;;;;;;17.90;100.00;96701.31;4965009;28;20045;-60
2022/07/20 02:03:12;;;;;;;11.55;4.68;;;;;;;18.02;100.00;96706.25;4968638;28;20034;-61
2022/07/20 02:05:37;;;;;;;7.20;5.13;;;;;;;18.08;100.00;96701.84;4961538;28;20060;-62
2022/07/20 02:08:03;;;;;;;9.48;5.03;;;;;;;18.06;99.55;96697.91;4967953;28;20043;-60
2022/07/20 02:10:28;;;;;;;9.18;5.40;;;;;;;17.89;100.00;96708.03;4959769;28;20039;-59
2022/07/20 02:12:54;;;;;;;8.23;5.10;;;;;;;17.72;100.00;96695.94;4969078;28;20041;-57
2022/07/20 02:18:05;;;;;;;11.80;5.75;;;;;;;18.05;100.00;96696.34;4960846;28;20038;-58
2022/07/20 02:20:30;;;;;;;7.30;5.00;;;;;;;18.13;100.00;96701.38;4965660;28;20058;-59
2022/07/20 02:22:56;;;;;;;9.00;4.78;;;;;;;18.18;100.00;96700.13;4971530;28;20057;-59
2022/07/20 02:25:21;;;;;;;12.07;4.95;;;;;;;18.17;100.00;96706.09;4970431;28;20085;-60
2022/07/20 02:27:47;;;;;;;7.75;5.00;;;;;;;18.17;100.00;96698.56;4955422;28;20039;-58
2022/07/20 02:30:12;;;;;;;9.55;5.25;;;;;;;18.12;99.97;96702.56;4967718;28;20027;-60
2022/07/20 02:32:38;;;;;;;6.32;4.07;;;;;;;18.16;100.00;96710.84;4967452;28;20031;-59
2022/07/20 02:35:03;;;;;;;8.70;5.10;;;;;;;18.09;98.77;96697.84;4965976;28;20120;-60
2022/07/20 02:37:29;;;;;;;11.35;4.60;;;;;;;18.11;99.40;96703.81;4964650;28;20492;-60
2022/07/20 02:39:55;;;;;;;11.23;4.68;;;;;;;18.25;98.74;96704.78;4991255;28;20034;-59
2022/07/20 02:42:20;;;;;;;10.32;5.43;;;;;;;17.93;98.84;96706.78;4985272;28;20059;-60
2022/07/20 02:44:46;;;;;;;8.05;5.43;;;;;;;17.71;100.00;96700.69;4967058;28;20031;-59
2022/07/20 02:47:11;;;;;;;9.23;5.00;;;;;;;17.76;100.00;96702.22;4972483;28;20455;-60
2022/07/20 02:49:36;;;;;;;9.55;4.68;;;;;;;17.94;100.00;96711.13;4966558;28;20360;-58
2022/07/20 02:52:02;;;;;;;11.48;5.45;;;;;;;18.09;99.74;96705.41;4967068;28;20070;-61
2022/07/20 02:54:27;;;;;;;12.38;4.78;;;;;;;18.13;98.89;96706.94;4974976;28;20042;-59
2022/07/20 02:56:53;;;;;;;9.10;4.90;;;;;;;17.96;97.52;96716.25;4972107;28;20471;-60
2022/07/20 02:59:18;;;;;;;10.65;5.40;;;;;;;17.76;98.80;96708.53;4964030;28;20785;-61
2022/07/20 03:01:44;;;;;;;9.25;5.43;;;;;;;17.77;100.00;96718.44;4971176;28;20035;-60
2022/07/20 03:04:09;;;;;;;9.70;5.57;;;;;;;17.66;100.00;96716.97;4975022;28;20038;-61
2022/07/20 03:06:34;;;;;;;15.13;5.47;;;;;;;17.72;100.00;96723.66;4974919;28;20065;-61
2022/07/20 03:09:00;;;;;;;10.88;6.38;;;;;;;17.59;98.20;96717.84;4983475;28;20034;-61
2022/07/20 03:11:25;;;;;;;11.93;5.90;;;;;;;17.51;99.31;96722.66;4975971;28;20083;-60
2022/07/20 03:13:51;;;;;;;10.90;5.68;;;;;;;17.58;100.00;96727.34;4969000;28;20050;-60
2022/07/20 03:16:16;;;;;;;11.23;5.93;;;;;;;17.64;99.44;96722.91;4956299;28;20050;-61
2022/07/20 03:18:42;;;;;;;11.13;5.72;;;;;;;17.42;100.00;96724.38;4969301;28;20038;-62
2022/07/20 03:21:07;;;;;;;12.23;5.82;;;;;;;17.24;100.00;96717.00;4965497;28;20027;-60
2022/07/20 03:23:33;;;;;;;11.43;6.28;;;;;;;17.19;100.00;96725.75;4989876;28;20037;-62
2022/07/20 03:25:58;;;;;;;8.20;5.68;;;;;;;17.21;100.00;96723.38;4975258;28;20042;-62
2022/07/20 03:28:23;;;;;;;13.68;6.40;;;;;;;17.30;100.00;96726.44;4969226;28;20085;-63
2022/07/20 03:30:49;;;;;;;8.35;5.53;;;;;;;17.31;100.00;96728.00;4976714;28;20031;-59
2022/07/20 03:33:14;;;;;;;14.07;6.50;;;;;;;17.28;100.00;96734.38;4974231;28;20561;-63
2022/07/20 03:35:39;;;;;;;9.05;5.63;;;;;;;17.30;100.00;96731.19;4974825;28;20038;-63
2022/07/20 03:38:05;;;;;;;9.75;5.88;;;;;;;17.46;100.00;96731.41;4973808;28;20035;-63
2022/07/20 03:40:30;;;;;;;14.32;6.63;;;;;;;17.37;100.00;96728.34;4970331;28;20062;-61
2022/07/20 03:42:56;;;;;;;9.35;6.47;;;;;;;17.04;100.00;96722.34;4963096;28;20035;-62
2022/07/20 03:45:21;;;;;;;9.27;5.97;;;;;;;16.81;100.00;96736.72;4965877;28;20073;-60
2022/07/20 03:47:50;;;;;;;12.52;6.68;;;;;;;16.77;100.00;96733.22;4973688;28;20039;-61
2022/07/20 03:50:15;;;;;;;12.55;6.80;;;;;;;16.51;100.00;96738.13;4965487;28;20030;-61
2022/07/20 03:52:40;;;;;;;9.32;6.30;;;;;;;16.65;100.00;96734.47;4973079;28;20041;-61
2022/07/20 03:55:06;;;;;;;13.35;6.32;;;;;;;16.51;100.00;96738.13;4964270;28;20035;-62
2022/07/20 03:57:32;;;;;;;12.60;7.10;;;;;;;16.56;100.00;96747.97;4988736;28;20081;-62
2022/07/20 03:59:57;;;;;;;10.55;6.07;;;;;;;16.79;100.00;96745.41;4974204;28;20096;-61
2022/07/20 04:02:22;;;;;;;13.10;6.97;;;;;;;16.86;100.00;96752.91;4971310;28;20098;-61
2022/07/20 04:04:48;;;;;;;8.23;5.68;;;;;;;17.08;100.00;96756.28;4964673;28;20033;-62
2022/07/20 04:07:13;;;;;;;15.48;6.22;;;;;;;17.19;100.00;96768.06;4969605;28;20833;-60
2022/07/20 04:09:45;;;;;;;13.18;6.18;;;;;;;17.22;100.00;96765.69;4967578;28;20043;-62
2022/07/20 04:12:19;;;;;;;13.85;7.35;;;;;;;16.94;100.00;96756.41;4969200;28;20081;-62
2022/07/20 04:14:46;;;;;;;15.27;7.00;;;;;;;16.85;100.00;96748.56;4969858;28;20031;-62
2022/07/20 04:17:12;;;;;;;13.85;7.40;;;;;;;16.21;100.00;96755.28;4963353;28;20034;-60
2022/07/20 04:19:37;;;;;;;15.82;6.97;;;;;;;15.83;100.00;96755.81;4965502;28;20153;-62
2022/07/20 04:22:03;;;;;;;13.68;7.45;;;;;;;15.55;100.00;96750.34;4987589;28;20039;-62
2022/07/20 04:24:29;;;;;;;13.90;7.03;;;;;;;15.79;100.00;96757.81;4964377;28;20030;-62
2022/07/20 04:26:54;;;;;;;13.13;7.00;;;;;;;16.20;100.00;96754.47;4985948;28;20026;-62
2022/07/20 04:29:21;;;;;;;14.82;7.07;;;;;;;16.69;100.00;96762.91;4954204;28;20513;-62
2022/07/20 04:31:47;;;;;;;12.90;6.63;;;;;;;17.13;100.00;96758.63;4954320;28;20023;-61
2022/07/20 04:34:12;;;;;;;10.18;6.20;;;;;;;17.59;100.00;96753.84;4968392;28;20027;-62
2022/07/20 04:36:38;;;;;;;13.20;6.75;;;;;;;18.09;100.00;96769.16;4963840;28;20036;-61
2022/07/20 04:39:03;;;;;;;11.68;6.40;;;;;;;18.20;100.00;96772.56;4971322;28;20035;-61
2022/07/20 04:41:29;;;;;;;14.68;6.82;;;;;;;18.49;100.00;96773.00;4971277;28;20055;-61
2022/07/20 04:43:54;;;;;;;15.82;6.32;;;;;;;18.62;98.59;96775.16;4965108;28;20042;-60
2022/07/20 04:46:19;;;;;;;12.88;6.43;;;;;;;18.55;99.28;96773.31;4968812;28;20035;-61
2022/07/20 04:48:45;;;;;;;12.95;7.20;;;;;;;18.84;96.83;96778.47;4965531;28;20031;-61
2022/07/20 04:51:10;;;;;;;18.27;6.90;;;;;;;18.70;96.60;96777.44;4969102;28;20039;-62
2022/07/20 04:53:36;;;;;;;18.00;6.72;;;;;;;18.53;100.00;96776.50;4966968;28;20042;-62
2022/07/20 04:56:01;;;;;;;12.02;6.22;;;;;;;18.51;100.00;96775.31;4971890;28;20030;-61
2022/07/20 04:58:27;;;;;;;12.57;6.75;;;;;;;18.33;100.00;96779.13;4964745;28;20030;-61
2022/07/20 05:00:52;;;;;;;19.27;7.50;;;;;;;18.20;100.00;96780.09;4971921;28;20539;-62
2022/07/20 05:03:18;;;;;;;15.07;5.75;;;;;;;18.85;100.00;96780.03;4969905;28;20035;-61
2022/07/20 05:05:43;;;;;;;12.20;6.13;;;;;;;19.27;98.58;96783.34;4965297;28;20047;-62
2022/07/20 05:08:09;;;;;;;14.25;5.88;;;;;;;20.23;94.68;96789.13;4975006;28;20083;-62
2022/07/20 05:10:35;;;;;;;13.50;7.45;;;;;;;20.97;85.99;96774.00;4989293;28;20031;-62
2022/07/20 05:13:00;;;;;;;13.40;6.47;;;;;;;21.70;81.66;96770.25;4969689;28;20489;-60
2022/07/20 05:15:26;;;;;;;15.68;7.15;;;;;;;21.44;78.58;96777.66;4963685;28;20116;-60
2022/07/20 05:17:52;;;;;;;14.38;6.45;;;;;;;21.15;83.39;96768.00;4969829;28;20026;-60
2022/07/20 05:20:18;;;;;;;12.63;6.18;;;;;;;23.01;75.61;96774.44;4962748;28;20035;-62
2022/07/20 05:22:43;;;;;;;10.40;5.90;;;;;;;25.16;65.81;96794.00;4972572;28;20035;-61
2022/07/20 05:25:09;;;;;;;14.60;6.88;;;;;;;26.27;59.75;96785.72;4971930;28;20489;-65
2022/07/20 05:27:35;;;;;;;13.75;6.30;;;;;;;27.20;55.33;96789.84;4958035;28;20031;-64
2022/07/20 05:30:00;;;;;;;9.63;5.47;;;;;;;28.29;51.67;96791.66;4952880;28;20035;-64
2022/07/20 05:32:26;;;;;;;10.07;5.47;;;;;;;28.95;48.92;96798.94;4957311;28;20030;-65
2022/07/20 05:34:51;;;;;;;15.07;6.53;;;;;;;29.16;48.01;96805.44;4964316;28;20058;-63
2022/07/20 05:37:17;;;;;;;10.65;5.88;;;;;;;29.72;46.46;96799.81;4966923;28;20499;-65
2022/07/20 05:39:42;;;;;;;11.95;5.82;;;;;;;29.79;45.61;96806.34;4967922;28;20186;-64
2022/07/20 05:42:07;;;;;;;10.07;5.03;;;;;;;30.52;44.04;96798.72;4969477;28;20038;-65
2022/07/20 05:44:33;;;;;;;9.48;5.63;;;;;;;28.85;48.27;96797.50;4964085;28;20468;-65
2022/07/20 05:46:58;;;;;;;9.43;5.63;;;;;;;29.07;48.40;96799.91;4970344;28;20616;-66
2022/07/20 05:49:24;;;;;;;10.45;6.13;;;;;;;29.94;44.35;96804.22;4963620;28;20037;-65
2022/07/20 05:51:49;;;;;;;10.77;5.93;;;;;;;29.96;44.62;96801.69;4971842;28;20800;-65
2022/07/20 05:54:15;;;;;;;9.10;5.35;;;;;;;31.85;40.37;96795.06;4971764;28;20041;-64
2022/07/20 05:56:40;;;;;;;7.78;5.43;;;;;;;33.02;38.06;96801.53;4969667;28;20113;-65
2022/07/20 05:59:05;;;;;;;9.23;4.78;;;;;;;33.68;35.84;96808.47;4963682;28;20475;-65
2022/07/20 06:01:31;;;;;;;8.30;5.18;;;;;;;33.23;36.39;96804.91;4970957;28;20345;-64
2022/07/20 06:03:57;;;;;;;12.15;5.35;;;;;;;33.66;35.83;96810.28;4968263;28;20460;-65
2022/07/20 06:06:22;;;;;;;10.63;5.40;;;;;;;34.33;34.92;96817.00;4964185;28;20037;-66
2022/07/20 06:08:48;;;;;;;9.80;4.70;;;;;;;34.77;33.45;96812.34;4963328;28;20481;-66
2022/07/20 06:11:13;;;;;;;10.00;5.55;;;;;;;31.62;38.29;96812.72;4969327;28;20077;-65
2022/07/20 06:13:39;;;;;;;13.20;6.00;;;;;;;30.34;40.63;96822.41;4964934;28;20399;-65
2022/07/20 06:16:05;;;;;;;9.48;5.28;;;;;;;31.88;38.73;96822.38;4967097;28;20114;-65
2022/07/20 06:18:30;;;;;;;12.73;5.70;;;;;;;30.28;41.75;96822.34;4964569;28;20030;-64
2022/07/20 06:20:55;;;;;;;9.95;6.10;;;;;;;28.93;43.38;96815.56;4963583;28;20031;-63
2022/07/20 06:23:21;;;;;;;9.65;6.07;;;;;;;30.11;41.62;96818.56;4971655;28;20101;-64
2022/07/20 06:25:46;;;;;;;10.93;5.60;;;;;;;30.43;41.33;96824.31;4971061;28;20565;-65
2022/07/20 06:28:11;;;;;;;10.88;5.70;;;;;;;31.70;38.65;96829.25;4971213;28;20044;-64
2022/07/20 06:30:37;;;;;;;10.93;5.65;;;;;;;32.61;36.62;96828.34;4970801;28;20100;-64
2022/07/20 06:33:02;;;;;;;9.18;5.22;;;;;;;32.35;34.65;96822.84;4968103;28;20038;-65
2022/07/20 06:35:28;;;;;;;10.43;4.90;;;;;;;32.79;32.36;96824.25;4945258;28;20054;-65
2022/07/20 06:37:53;;;;;;;10.10;5.30;;;;;;;32.10;34.08;96830.22;4957582;28;20405;-65
2022/07/20 06:40:19;;;;;;;9.63;4.55;;;;;;;33.98;32.70;96832.63;4956471;28;20043;-65
2022/07/20 06:42:44;;;;;;;10.35;5.28;;;;;;;32.25;35.50;96824.34;4960838;28;20750;-64
2022/07/20 06:45:10;;;;;;;10.45;5.28;;;;;;;31.89;37.71;96835.25;4957075;28;20043;-64
2022/07/20 06:47:35;;;;;;;11.98;5.30;;;;;;;30.42;39.44;96843.31;4958719;28;20046;-66
2022/07/20 06:50:03;;;;;;;14.50;5.60;;;;;;;31.30;39.09;96828.97;4944335;28;20082;-65
2022/07/20 06:52:32;;;;;;;11.85;5.60;;;;;;;32.49;36.77;96830.34;4940257;28;20044;-65
2022/07/20 06:54:57;;;;;;;19.45;5.95;;;;;;;33.08;35.31;96830.69;4941360;28;20058;-65
2022/07/20 06:57:23;;;;;;;10.80;5.05;;;;;;;34.23;34.02;96836.44;4949345;28;20545;-63
2022/07/20 06:59:49;;;;;;;11.05;5.18;;;;;;;33.11;34.94;96832.50;4952866;28;20459;-64
2022/07/20 07:02:14;;;;;;;12.02;5.60;;;;;;;34.44;33.19;96840.44;4954493;28;20074;-64
2022/07/20 07:04:40;;;;;;;14.05;4.90;;;;;;;35.89;31.32;96849.66;4955310;28;20484;-65
2022/07/20 07:07:06;;;;;;;10.80;5.10;;;;;;;35.34;31.07;96846.84;4953725;28;20043;-65
2022/07/20 07:09:31;;;;;;;8.55;5.05;;;;;;;35.78;30.16;96847.72;4961063;28;20863;-65
2022/07/20 07:11:56;;;;;;;10.27;5.25;;;;;;;34.91;31.30;96853.88;4961729;28;20070;-65
2022/07/20 07:14:22;;;;;;;9.13;5.60;;;;;;;35.33;30.21;96856.69;4956217;28;20063;-65
2022/07/20 07:16:47;;;;;;;10.20;5.28;;;;;;;35.79;30.35;96852.88;4956474;28;20071;-66
2022/07/20 07:19:13;;;;;;;9.85;5.43;;;;;;;35.17;31.76;96853.44;4949075;28;20443;-66
2022/07/20 07:21:38;;;;;;;10.77;5.50;;;;;;;35.95;30.44;96854.00;4947606;28;20485;-66
2022/07/20 07:24:04;;;;;;;10.13;4.93;;;;;;;36.34;29.22;96854.88;4952927;28;20859;-66
2022/07/20 07:26:29;;;;;;;10.48;4.90;;;;;;;35.83;29.63;96852.59;4941101;29;20130;-65
2022/07/20 07:28:55;;;;;;;12.32;5.15;;;;;;;35.83;29.78;96854.69;4954390;28;20089;-66
2022/07/20 07:31:20;;;;;;;9.82;5.30;;;;;;;34.57;31.59;96854.06;4951694;28;20121;-67
2022/07/20 07:33:47;;;;;;;17.27;5.45;;;;;;;33.31;34.51;96842.81;4957590;28;20400;-65
2022/07/20 07:36:13;;;;;;;11.50;5.15;;;;;;;35.34;31.39;96844.75;4960610;28;20039;-65
2022/07/20 07:38:39;;;;;;;10.15;4.88;;;;;;;36.12;29.35;96844.47;4964428;28;20400;-65
2022/07/20 07:41:04;;;;;;;12.45;5.15;;;;;;;36.93;27.98;96850.16;4961917;28;20047;-65
2022/07/20 07:43:29;;;;;;;14.10;5.22;;;;;;;33.84;32.49;96843.78;4980621;28;20081;-65
2022/07/20 07:45:55;;;;;;;10.30;4.90;;;;;;;35.17;30.19;96842.06;4969903;28;20109;-65
2022/07/20 07:48:21;;;;;;;12.63;5.28;;;;;;;32.71;35.08;96837.38;4960983;28;20051;-65
2022/07/20 07:50:46;;;;;;;10.55;6.07;;;;;;;33.68;33.81;96845.38;4960474;28;20046;-65
2022/07/20 07:53:12;;;;;;;13.02;5.10;;;;;;;36.12;30.52;96835.94;4958785;28;20043;-65
2022/07/20 07:55:38;;;;;;;11.52;5.25;;;;;;;37.54;28.28;96841.09;4962681;28;20060;-65
2022/07/20 07:58:05;;;;;;;11.95;5.30;;;;;;;34.76;32.41;96834.34;4952057;28;20045;-66
2022/07/20 08:00:31;;;;;;;13.40;5.93;;;;;;;31.04;39.49;96838.31;4959909;28;20047;-65
2022/07/20 08:02:57;;;;;;;12.65;5.78;;;;;;;33.50;35.30;96835.31;4954594;28;20043;-65
2022/07/20 08:05:22;;;;;;;10.95;5.25;;;;;;;32.82;36.46;96833.78;4957649;28;20050;-66
2022/07/20 08:07:48;;;;;;;12.60;5.60;;;;;;;34.33;33.71;96840.50;4955585;28;20043;-64
2022/07/20 08:10:14;;;;;;;14.20;5.47;;;;;;;33.53;34.05;96842.03;4960072;28;20050;-66
2022/07/20 08:12:40;;;;;;;11.55;5.90;;;;;;;32.73;36.81;96838.41;4962990;28;20054;-66
2022/07/20 08:15:06;;;;;;;11.23;5.95;;;;;;;34.71;33.47;96843.69;4952625;28;20051;-66
2022/07/20 08:17:32;;;;;;;18.50;6.10;;;;;;;34.08;34.01;96845.25;4956288;28;20043;-66
2022/07/20 08:19:58;;;;;;;10.52;5.60;;;;;;;34.34;33.58;96842.06;4962446;28;20500;-66
2022/07/20 08:22:23;;;;;;;11.73;5.25;;;;;;;33.66;34.76;96844.38;4950319;28;20509;-66
2022/07/20 08:24:49;;;;;;;11.52;5.57;;;;;;;34.95;33.56;96843.00;4963341;28;20103;-64
2022/07/20 08:27:14;;;;;;;8.60;5.18;;;;;;;36.33;31.13;96842.69;4956283;28;20117;-65
2022/07/20 08:29:39;;;;;;;9.18;5.40;;;;;;;36.42;30.49;96852.94;4967525;28;20089;-65
2022/07/20 08:32:05;;;;;;;11.65;5.50;;;;;;;36.62;30.64;96845.16;4964787;28;20043;-65
2022/07/20 08:34:30;;;;;;;10.80;5.28;;;;;;;37.00;30.10;96842.28;4956315;28;20044;-64
2022/07/20 08:36:56;;;;;;;14.25;5.70;;;;;;;35.69;32.05;96848.06;4944544;28;20039;-66
2022/07/20 08:39:22;;;;;;;11.30;5.47;;;;;;;36.31;31.34;96842.47;4954523;28;20188;-66
2022/07/20 08:41:47;;;;;;;10.38;5.85;;;;;;;36.63;31.11;96841.75;4958642;28;20409;-67
2022/07/20 08:44:13;;;;;;;12.90;5.93;;;;;;;33.65;35.39;96845.63;4957799;28;20053;-64
2022/07/20 08:46:41;;;;;;;11.88;5.63;;;;;;;35.41;33.10;96846.25;4964435;28;20038;-66
2022/07/20 08:49:07;;;;;;;11.00;5.82;;;;;;;32.78;37.37;96834.03;4955466;28;20229;-65
2022/07/20 08:51:33;;;;;;;10.45;5.70;;;;;;;33.88;36.71;96837.84;4952952;28;20146;-66
2022/07/20 08:53:58;;;;;;;13.68;6.03;;;;;;;35.33;33.92;96834.69;4962912;28;20050;-66
2022/07/20 08:56:24;;;;;;;11.10;5.63;;;;;;;35.78;33.11;96845.66;4957673;28;20038;-66
2022/07/20 08:58:49;;;;;;;12.93;5.60;;;;;;;36.73;31.83;96834.38;4955240;28;20697;-67
2022/07/20 09:01:17;;;;;;;15.57;6.43;;;;;;;37.22;31.60;96841.16;4957732;28;20393;-67
2022/07/20 09:03:44;;;;;;;9.90;5.40;;;;;;;37.69;30.58;96837.78;4962408;28;20046;-67
2022/07/20 09:06:11;;;;;;;10.82;5.43;;;;;;;36.59;32.27;96834.81;4947229;28;20105;-66
2022/07/20 09:09:00;;;;;;;16.23;6.47;;;;;;;37.17;32.01;96824.88;4943132;28;20348;-66
2022/07/20 09:11:25;;;;;;;10.93;5.93;;;;;;;37.58;31.23;96830.16;4952379;28;20047;-66
2022/07/20 09:13:51;;;;;;;13.30;5.68;;;;;;;36.29;33.39;96825.13;4954982;28;20050;-65
2022/07/20 09:16:30;;;;;;;16.80;6.07;;;;;;;36.03;34.31;96827.75;4956713;28;20050;-66
2022/07/20 09:18:55;;;;;;;14.77;5.63;;;;;;;35.86;33.95;96825.13;4962179;28;20051;-66
2022/07/20 09:21:29;;;;;;;13.38;5.88;;;;;;;35.88;33.95;96828.97;4950489;28;20051;-65
2022/07/20 09:23:56;;;;;;;8.45;5.85;;;;;;;36.54;32.51;96825.81;4962472;28;20051;-65
2022/07/20 09:26:22;;;;;;;10.40;5.88;;;;;;;36.02;33.49;96821.28;4950429;28;20046;-66
2022/07/20 09:28:50;;;;;;;15.23;6.13;;;;;;;35.45;33.62;96828.88;4962309;28;20641;-64
2022/07/20 09:31:21;;;;;;;10.48;6.13;;;;;;;35.39;34.04;96832.56;4956136;28;20034;-64
2022/07/20 09:33:49;;;;;;;11.63;7.38;;;;;;;35.95;34.28;96824.75;4952203;28;20054;-64
2022/07/20 09:36:14;;;;;;;13.77;7.13;;;;;;;35.70;34.48;96827.59;4954752;28;20039;-65
2022/07/20 09:38:41;;;;;;;9.82;5.80;;;;;;;35.81;35.15;96820.25;4956823;28;20050;-65
2022/07/20 09:41:28;;;;;;;13.13;6.18;;;;;;;35.07;36.46;96818.06;4948679;28;20047;-65
2022/07/20 09:43:54;;;;;;;9.13;5.63;;;;;;;35.27;36.00;96816.88;4960999;28;20043;-65
2022/07/20 09:46:32;;;;;;;14.55;6.85;;;;;;;35.26;36.31;96820.25;4957004;28;20042;-65
2022/07/20 09:49:04;;;;;;;9.75;5.85;;;;;;;35.10;35.76;96822.69;4948837;28;20512;-64
2022/07/20 09:51:35;;;;;;;10.00;5.95;;;;;;;34.76;36.82;96820.13;4960420;28;20066;-65
2022/07/20 09:54:09;;;;;;;11.55;6.32;;;;;;;34.90;36.23;96820.28;4962017;28;20101;-64
2022/07/20 09:56:43;;;;;;;13.00;6.32;;;;;;;34.92;36.82;96814.84;4960612;28;20039;-65
2022/07/20 09:59:11;;;;;;;12.90;6.22;;;;;;;35.21;36.69;96816.16;4954171;28;20051;-66
2022/07/20 10:01:40;;;;;;;11.33;5.87;;;;;;;34.85;34.34;96816.19;4953779;28;20451;-65
2022/07/20 10:04:08;;;;;;;14.95;6.60;;;;;;;34.85;37.65;96816.94;4957253;28;20460;-64
2022/07/20 10:06:35;;;;;;;17.55;6.15;;;;;;;34.75;37.63;96815.72;4961792;28;20100;-65
2022/07/20 10:09:03;;;;;;;11.25;6.45;;;;;;;34.57;36.84;96816.34;4976117;28;20035;-63
2022/07/20 10:11:29;;;;;;;11.23;6.03;;;;;;;34.22;38.89;96812.91;4959118;28;20038;-65
2022/07/20 10:13:57;;;;;;;14.07;7.10;;;;;;;34.08;39.07;96808.31;4973440;28;20050;-65
2022/07/20 10:16:37;;;;;;;9.27;6.22;;;;;;;34.12;39.21;96808.81;4953610;28;20301;-65
2022/07/20 10:19:05;;;;;;;14.07;6.50;;;;;;;34.37;38.78;96801.19;4959342;28;20050;-65
2022/07/20 10:21:37;;;;;;;10.05;6.53;;;;;;;34.78;37.09;96811.81;4939447;29;20055;-66
2022/07/20 10:24:34;;;;;;;10.43;6.18;;;;;;;34.56;37.15;96804.19;4963931;28;20672;-65
2022/07/20 10:27:03;;;;;;;12.82;6.40;;;;;;;34.18;39.44;96806.75;4964847;28;20047;-66
2022/07/20 10:29:31;;;;;;;13.85;6.25;;;;;;;34.36;40.50;96804.56;4941264;28;20652;-65
2022/07/20 10:32:09;;;;;;;15.85;6.13;;;;;;;34.67;36.62;96798.44;4954710;28;20092;-65
2022/07/20 10:34:39;;;;;;;11.07;6.15;;;;;;;34.70;36.11;96798.69;4953085;28;20034;-65
2022/07/20 10:37:25;;;;;;;9.55;6.18;;;;;;;35.04;38.15;96800.00;4956833;28;20050;-66
2022/07/20 10:40:01;;;;;;;9.48;5.43;;;;;;;35.04;35.30;96808.53;4960255;28;20166;-65
2022/07/20 10:42:39;;;;;;;13.32;7.18;;;;;;;34.56;39.55;96801.34;4953135;28;20050;-65
2022/07/20 10:45:10;;;;;;;12.68;6.00;;;;;;;34.73;38.43;96797.66;4956840;28;20066;-66
2022/07/20 10:47:46;;;;;;;12.70;6.20;;;;;;;34.36;39.54;96811.03;4951637;28;20047;-66
2022/07/20 10:50:22;;;;;;;11.25;6.65;;;;;;;34.49;37.58;96804.00;4956341;28;20492;-65
2022/07/20 10:52:56;;;;;;;9.30;6.47;;;;;;;34.39;38.29;96809.97;4961280;28;20532;-65
2022/07/20 10:55:34;;;;;;;16.38;6.38;;;;;;;34.32;39.23;96806.94;4953301;28;20060;-65
2022/07/20 10:58:15;;;;;;;14.65;6.25;;;;;;;34.16;39.26;96800.00;4961543;28;20085;-64
2022/07/20 11:00:43;;;;;;;11.45;6.30;;;;;;;34.12;39.75;96800.28;4954167;28;20048;-65
2022/07/20 11:03:27;;;;;;;11.40;6.13;;;;;;;34.18;39.76;96805.97;4948348;28;20134;-66
2022/07/20 11:06:07;;;;;;;9.98;6.10;;;;;;;34.11;40.40;96803.66;4964422;28;20070;-65
2022/07/20 11:08:35;;;;;;;11.07;6.45;;;;;;;33.63;41.65;96799.94;4958060;28;20042;-65
2022/07/20 11:11:01;;;;;;;13.15;6.38;;;;;;;33.55;42.61;96798.91;4965652;28;20504;-64
2022/07/20 11:13:27;;;;;;;10.93;5.90;;;;;;;33.62;40.57;96802.00;4957133;28;20059;-64
2022/07/20 11:16:02;;;;;;;14.73;7.55;;;;;;;33.66;38.75;96791.16;4964570;28;20050;-64
2022/07/20 11:18:30;;;;;;;10.75;6.55;;;;;;;33.64;41.20;96781.59;4962030;28;20172;-66
2022/07/20 11:21:02;;;;;;;11.30;6.70;;;;;;;34.06;41.05;96780.41;4942310;28;20503;-66
2022/07/20 11:23:38;;;;;;;8.88;5.88;;;;;;;34.69;37.49;96775.19;4953442;28;20070;-64
2022/07/20 11:26:03;;;;;;;11.60;5.15;;;;;;;34.70;33.17;96775.94;4961307;28;20050;-67
2022/07/20 11:28:32;;;;;;;6.38;4.28;;;;;;;34.79;32.28;96765.03;4958390;28;20070;-68
2022/07/20 11:30:58;;;;;;;8.52;4.72;;;;;;;35.39;32.02;96764.22;4955979;28;20039;-67